Airfield :
LOGIN :

Register | Disclaimer

   EN    FR    IT 

 










Legend :    VFR   Marginal VFR   IFR   Intensive IFR   Very Intensive IFR
Visi :
Ceiling :
>= 8 km
>= 3000ft
5 to 8 km
1000 to 3000 ft
1500m to 5 km
500 to 1000 ft
800 to 1500m
200 to 500 ft
< 800m
< 200 ft
Symbols :   Thunderstorms  Fog  Heavy snow  Heavy precipitations  Wind > 20 kt
SIGMETs :     Misc.  Thunderstorms  Icing  Turbulence  Mountain Waves  Volcanic Ashes






- Airport Elevation : 15 ft
- IATA code : BHD


EGAC - George Best Belfast City

CURRENT METAR :
  • 291120Z AUTO 23018KT 200V260 9999 NCD 08/02 Q0998

EXPIRED METARs :
  • 291050Z AUTO 23015KT 9999 FEW023 07/03 Q0999
  • 291020Z AUTO 22016KT 9999 NCD 07/02 Q0999
  • 290950Z AUTO 22014KT 9999 NCD 06/02 Q0999
  • 290920Z AUTO 22015KT 9999 NCD 06/02 Q0999
  • 290850Z AUTO 20012KT 9999 NCD 05/02 Q0999
  • 290820Z AUTO 21012KT 9999 NCD 04/02 Q0999
  • 290750Z AUTO 21011KT 9999 NCD 04/02 Q0999
  • 290720Z AUTO 22011KT 9999 NCD 05/02 Q0999
  • 290650Z AUTO 23014KT 9999 NCD 05/02 Q0999

TAF TAF EGAC
Valid from the 29 at 12:00 until the 29 at 21:00 UTC


291101Z 2912/2921 22012KT 9999 FEW030
TEMPO 2912/2919 7000 SHRA
PROB30
TEMPO 2913/2919 23017G27KT 3000 +SHRAGS BKN007 BKN018CB
ATIS : +44 02890 935 124



MET'MAP, your aeronautical weather chart ! - Copyright ORBIFLY December 2007 - Disclaimer

ORBIFLY MET'MAP TEAM :

Programming & Development : Alexandra Zaïnal
Original concept : Baudouin d'Aumeries
Technical & hardware support : Manuel Goepfert
Assistance : Marc-Olivier Méhu




SOURCES & CREDITS :

   NOAA